Time;durP1;ratioP1;P1;durP2;ratioP2;P2;SDS_P1;SDS_P2;PMS_P1;PMS_P2;Temp;Humidity;BMP_temperature;BMP_pressure;BME280_temperature;BME280_humidity;BME280_pressure;Samples;Min_cycle;Max_cycle;Signal;HPM_P1;HPM_P2
2021/07/28 00:01:49;;;;;;;;;;;;;;;28.10;42.10;97054.88;5012863;28;1077;-50
2021/07/28 00:04:14;;;;;;;;;;;;;;;28.23;41.64;97051.88;5011637;28;1137;-50
2021/07/28 00:06:40;;;;;;;;;;;;;;;28.19;41.86;97050.47;5013182;28;1627;-51
2021/07/28 00:09:05;;;;;;;;;;;;;;;28.22;41.98;97060.81;5010272;28;1913;-51
2021/07/28 00:11:30;;;;;;;;;;;;;;;28.15;41.90;97065.03;5011332;28;1567;-51
2021/07/28 00:13:55;;;;;;;;;;;;;;;28.16;41.70;97064.03;5010479;28;1216;-51
2021/07/28 00:16:20;;;;;;;;;;;;;;;28.05;42.01;97062.44;5010355;28;1718;-51
2021/07/28 00:23:58;;;;;;;;;;;;;;;28.01;42.07;97064.53;5008805;28;1646;-50
2021/07/28 00:26:23;;;;;;;;;;;;;;;28.17;41.85;97057.75;5006881;28;1610;-50
2021/07/28 00:28:48;;;;;;;;;;;;;;;28.18;41.76;97056.78;5007364;28;1902;-48
2021/07/28 00:31:13;;;;;;;;;;;;;;;28.21;41.47;97067.09;5013968;28;1193;-51
2021/07/28 00:33:38;;;;;;;;;;;;;;;28.00;41.96;97068.19;5011541;28;1259;-51
2021/07/28 00:36:04;;;;;;;;;;;;;;;28.25;41.59;97066.63;5009322;28;1574;-51
2021/07/28 00:38:29;;;;;;;;;;;;;;;28.17;41.72;97071.84;5012030;28;1298;-51
2021/07/28 00:40:54;;;;;;;;;;;;;;;28.22;41.76;97074.06;5010563;28;1707;-51
2021/07/28 00:43:23;;;;;;;;;;;;;;;28.05;41.99;97084.47;5013146;28;1161;-49
2021/07/28 00:45:48;;;;;;;;;;;;;;;28.23;41.72;97088.97;5011773;28;1090;-51
2021/07/28 00:48:14;;;;;;;;;;;;;;;28.24;41.46;97096.78;5011272;28;1298;-51
2021/07/28 00:50:40;;;;;;;;;;;;;;;28.08;41.85;97091.28;5011722;28;1961;-51
2021/07/28 00:53:05;;;;;;;;;;;;;;;28.27;41.43;97091.16;5010680;28;1694;-51
2021/07/28 00:55:31;;;;;;;;;;;;;;;28.13;41.87;97090.88;5009359;28;1518;-50
2021/07/28 00:57:58;;;;;;;;;;;;;;;28.18;41.97;97099.19;4998275;28;1466;-51
2021/07/28 01:00:23;;;;;;;;;;;;;;;28.14;41.80;97096.00;5006688;28;1223;-51
2021/07/28 01:02:48;;;;;;;;;;;;;;;28.14;41.83;97106.63;5005960;28;1090;-50
2021/07/28 01:05:13;;;;;;;;;;;;;;;28.14;41.93;97111.09;5008389;28;1599;-50
2021/07/28 01:07:38;;;;;;;;;;;;;;;28.10;41.89;97114.00;5000752;28;1465;-51
2021/07/28 01:10:04;;;;;;;;;;;;;;;28.26;41.58;97117.84;5009168;28;1902;-51
2021/07/28 01:12:31;;;;;;;;;;;;;;;28.14;41.93;97103.13;5008600;28;1431;-50
2021/07/28 01:14:56;;;;;;;;;;;;;;;28.22;41.64;97106.72;5011294;28;1101;-50
2021/07/28 01:17:21;;;;;;;;;;;;;;;28.18;41.92;97097.38;5010763;28;1298;-51
2021/07/28 01:19:48;;;;;;;;;;;;;;;28.05;42.49;97102.22;5008031;28;1953;-51
2021/07/28 01:22:13;;;;;;;;;;;;;;;28.24;41.58;97101.25;5001691;28;1204;-50
2021/07/28 01:24:39;;;;;;;;;;;;;;;28.07;41.95;97106.38;5010030;28;1375;-51
2021/07/28 01:27:04;;;;;;;;;;;;;;;28.07;42.09;97100.22;5007745;28;1911;-50
2021/07/28 01:29:29;;;;;;;;;;;;;;;28.22;41.62;97104.06;5009442;28;1902;-51
2021/07/28 01:31:56;;;;;;;;;;;;;;;28.08;42.00;97101.91;5010871;28;1116;-51
2021/07/28 01:34:21;;;;;;;;;;;;;;;28.16;41.92;97101.16;5011487;28;1171;-51
2021/07/28 01:36:48;;;;;;;;;;;;;;;28.06;42.05;97103.88;5009034;28;1630;-51
2021/07/28 01:39:13;;;;;;;;;;;;;;;28.16;42.18;97106.47;5039457;22;1786;-53
2021/07/28 01:41:38;;;;;;;;;;;;;;;28.09;42.51;97108.88;5026483;28;1569;-53
2021/07/28 01:44:04;;;;;;;;;;;;;;;28.27;41.45;97114.19;5025664;28;1561;-53
2021/07/28 01:46:29;;;;;;;;;;;;;;;28.17;41.86;97110.78;5028713;28;1042;-53
2021/07/28 01:48:54;;;;;;;;;;;;;;;28.05;42.03;97108.34;5016914;28;1989;-53
2021/07/28 01:51:19;;;;;;;;;;;;;;;27.99;42.12;97118.69;5007210;28;1614;-54
2021/07/28 01:53:44;;;;;;;;;;;;;;;28.03;42.31;97122.69;5009150;28;1182;-53
2021/07/28 01:56:10;;;;;;;;;;;;;;;28.16;42.24;97109.94;5006093;28;1566;-52
2021/07/28 01:58:38;;;;;;;;;;;;;;;28.13;41.82;97107.59;5010099;28;1288;-51
2021/07/28 02:01:03;;;;;;;;;;;;;;;28.30;41.68;97106.84;5009171;28;1312;-52
2021/07/28 02:03:29;;;;;;;;;;;;;;;28.25;42.04;97095.78;5009863;28;1129;-53
2021/07/28 02:05:54;;;;;;;;;;;;;;;28.36;41.62;97105.41;5003629;28;1848;-53
2021/07/28 02:08:19;;;;;;;;;;;;;;;28.14;41.88;97111.91;5007556;28;1331;-51
2021/07/28 02:10:47;;;;;;;;;;;;;;;28.23;41.78;97116.34;5005902;28;1894;-53
2021/07/28 02:13:13;;;;;;;;;;;;;;;28.17;42.18;97108.13;5007050;28;1320;-53
2021/07/28 02:15:38;;;;;;;;;;;;;;;28.17;42.04;97108.13;4998077;28;1134;-54
2021/07/28 02:18:03;;;;;;;;;;;;;;;28.10;42.08;97098.09;5005598;28;1559;-52
2021/07/28 02:20:29;;;;;;;;;;;;;;;28.19;42.00;97095.56;5008738;28;1126;-53
2021/07/28 02:22:54;;;;;;;;;;;;;;;28.23;42.16;97088.97;5008853;28;1200;-53
2021/07/28 02:25:19;;;;;;;;;;;;;;;28.39;41.35;97097.16;5005110;28;1566;-53
2021/07/28 02:27:44;;;;;;;;;;;;;;;28.24;41.85;97093.31;5008567;28;1244;-54
2021/07/28 02:30:10;;;;;;;;;;;;;;;28.18;42.12;97093.88;5002538;28;1902;-52
2021/07/28 02:32:35;;;;;;;;;;;;;;;28.12;42.19;97089.16;5006496;28;1051;-52
2021/07/28 02:35:01;;;;;;;;;;;;;;;28.13;41.82;97096.16;5009111;28;1189;-51
2021/07/28 02:37:26;;;;;;;;;;;;;;;28.27;41.79;97103.59;5010095;28;1141;-53
2021/07/28 02:39:51;;;;;;;;;;;;;;;28.28;42.20;97113.22;5007151;28;1476;-51
2021/07/28 02:42:16;;;;;;;;;;;;;;;28.26;42.06;97109.88;5007690;28;1575;-53
2021/07/28 02:44:42;;;;;;;;;;;;;;;28.16;42.12;97107.28;5007595;28;1252;-51
2021/07/28 02:47:07;;;;;;;;;;;;;;;28.21;42.03;97112.16;5009733;28;1197;-54
2021/07/28 02:49:32;;;;;;;;;;;;;;;28.16;41.81;97104.66;5007145;28;1902;-51
2021/07/28 02:51:57;;;;;;;;;;;;;;;28.31;42.00;97107.66;5007854;28;1004;-54
2021/07/28 02:54:23;;;;;;;;;;;;;;;28.11;41.97;97096.28;5002797;28;1721;-54
2021/07/28 02:56:49;;;;;;;;;;;;;;;28.13;42.20;97093.53;5006761;28;1571;-53
2021/07/28 02:59:14;;;;;;;;;;;;;;;28.18;42.43;97099.19;5007532;28;1378;-53
2021/07/28 03:01:39;;;;;;;;;;;;;;;28.07;42.24;97089.63;5008593;28;1145;-54
2021/07/28 03:04:04;;;;;;;;;;;;;;;28.16;42.15;97095.84;5007620;28;1623;-53
2021/07/28 03:06:29;;;;;;;;;;;;;;;28.00;42.48;97094.69;5009061;28;1225;-53
2021/07/28 03:08:55;;;;;;;;;;;;;;;28.27;42.15;97098.28;5008912;28;1969;-53
2021/07/28 03:11:20;;;;;;;;;;;;;;;28.15;41.95;97094.19;5006879;28;1475;-52
2021/07/28 03:13:45;;;;;;;;;;;;;;;28.03;42.37;97102.31;5007827;28;1283;-54
2021/07/28 03:16:10;;;;;;;;;;;;;;;28.14;42.10;97100.47;5008315;28;1173;-52
2021/07/28 03:18:35;;;;;;;;;;;;;;;28.09;42.23;97101.75;5007827;28;1379;-53
2021/07/28 03:21:01;;;;;;;;;;;;;;;28.07;42.35;97094.94;5005034;28;2075;-52
2021/07/28 03:23:26;;;;;;;;;;;;;;;28.13;42.27;97096.16;5008090;28;1154;-51
2021/07/28 03:25:51;;;;;;;;;;;;;;;28.17;41.91;97094.88;5006168;28;1569;-53
2021/07/28 03:28:16;;;;;;;;;;;;;;;28.17;41.76;97093.06;5008736;28;1351;-53
2021/07/28 03:30:41;;;;;;;;;;;;;;;28.09;41.95;97099.09;5009729;28;1965;-53
2021/07/28 03:33:07;;;;;;;;;;;;;;;28.11;42.48;97088.34;5000562;28;1803;-51
2021/07/28 03:35:32;;;;;;;;;;;;;;;28.16;41.72;97093.22;5011440;28;1042;-52
2021/07/28 03:37:57;;;;;;;;;;;;;;;28.06;42.33;97098.56;5011962;28;1367;-54
2021/07/28 03:40:22;;;;;;;;;;;;;;;28.03;42.26;97096.19;5012034;28;1533;-53
2021/07/28 03:42:48;;;;;;;;;;;;;;;28.14;42.20;97101.31;5012053;28;1206;-53
2021/07/28 03:45:13;;;;;;;;;;;;;;;28.13;42.04;97085.56;5010093;28;1466;-54
2021/07/28 03:47:38;;;;;;;;;;;;;;;28.12;42.08;97090.00;5012917;28;1387;-53
2021/07/28 03:50:03;;;;;;;;;;;;;;;28.08;42.23;97094.78;5009585;28;1965;-53
2021/07/28 03:52:29;;;;;;;;;;;;;;;28.06;41.99;97096.75;5010002;28;1556;-53
2021/07/28 03:54:54;;;;;;;;;;;;;;;28.11;42.08;97088.34;5007606;28;1619;-53
2021/07/28 03:57:19;;;;;;;;;;;;;;;28.05;41.96;97100.38;5010592;28;1774;-52
2021/07/28 03:59:44;;;;;;;;;;;;;;;28.17;42.06;97097.53;5011072;28;1272;-53
2021/07/28 04:02:12;;;;;;;;;;;;;;;28.08;42.08;97086.81;5011358;28;1159;-53
2021/07/28 04:04:37;;;;;;;;;;;;;;;28.23;41.82;97081.03;5010419;28;1582;-54
2021/07/28 04:07:02;;;;;;;;;;;;;;;28.21;41.92;97083.00;5012214;28;1153;-54
2021/07/28 04:09:28;;;;;;;;;;;;;;;28.06;42.35;97088.81;5010414;28;1968;-52
2021/07/28 04:11:53;;;;;;;;;;;;;;;28.01;42.14;97087.56;5009255;28;1575;-53
2021/07/28 04:14:18;;;;;;;;;;;;;;;28.06;42.27;97093.28;5009254;28;1421;-53
2021/07/28 04:16:43;;;;;;;;;;;;;;;28.14;42.14;97076.63;5010125;28;1594;-54
2021/07/28 04:19:08;;;;;;;;;;;;;;;28.16;42.01;97079.94;5009553;28;1588;-53
2021/07/28 04:21:34;;;;;;;;;;;;;;;28.00;42.19;97081.44;5007439;28;1656;-53
2021/07/28 04:23:59;;;;;;;;;;;;;;;28.05;42.10;97086.31;5011505;28;1153;-53
2021/07/28 04:26:24;;;;;;;;;;;;;;;28.04;41.96;97084.59;5010951;28;1560;-52
2021/07/28 04:28:50;;;;;;;;;;;;;;;28.07;42.19;97090.47;5011563;28;1973;-51
2021/07/28 04:31:15;;;;;;;;;;;;;;;27.94;42.23;97110.34;5011105;28;1355;-51
2021/07/28 04:33:41;;;;;;;;;;;;;;;28.02;42.34;97103.31;5009083;28;1553;-53
2021/07/28 04:36:06;;;;;;;;;;;;;;;27.98;42.27;97112.56;5002815;28;1614;-54
2021/07/28 04:38:31;;;;;;;;;;;;;;;27.97;42.31;97116.19;5011843;28;1382;-51
2021/07/28 04:40:56;;;;;;;;;;;;;;;28.24;41.85;97112.69;5008131;28;1550;-53
2021/07/28 04:43:21;;;;;;;;;;;;;;;27.99;42.15;97116.88;5010153;28;1123;-52
2021/07/28 04:45:47;;;;;;;;;;;;;;;28.13;42.00;97114.72;5006009;28;1312;-53
2021/07/28 04:48:12;;;;;;;;;;;;;;;28.06;41.88;97110.00;5010986;28;1312;-53
2021/07/28 04:50:37;;;;;;;;;;;;;;;28.17;41.99;97097.53;5008718;28;1910;-51
2021/07/28 04:53:03;;;;;;;;;;;;;;;28.11;41.85;97098.94;5009157;28;1556;-52
2021/07/28 04:55:28;;;;;;;;;;;;;;;27.90;42.47;97108.97;5008010;28;1582;-51
2021/07/28 04:57:53;;;;;;;;;;;;;;;28.03;42.15;97106.81;5010627;28;1390;-50
2021/07/28 05:00:18;;;;;;;;;;;;;;;28.15;42.16;97102.97;5009412;28;1450;-53
2021/07/28 05:02:44;;;;;;;;;;;;;;;28.17;41.94;97106.31;5010577;28;1094;-53
2021/07/28 05:05:09;;;;;;;;;;;;;;;28.15;42.20;97104.81;5009207;28;1555;-53
2021/07/28 05:07:34;;;;;;;;;;;;;;;28.05;42.03;97111.00;5011086;28;1291;-51
2021/07/28 05:09:59;;;;;;;;;;;;;;;28.22;41.71;97113.84;5006446;28;1965;-52
2021/07/28 05:12:25;;;;;;;;;;;;;;;28.02;42.55;97116.56;5009087;28;1217;-53
2021/07/28 05:14:50;;;;;;;;;;;;;;;28.17;41.89;97111.63;5009536;28;1232;-52
2021/07/28 05:17:16;;;;;;;;;;;;;;;28.15;41.73;97112.75;5009922;28;1336;-53
2021/07/28 05:19:41;;;;;;;;;;;;;;;28.19;42.05;97111.47;5007557;28;1547;-53
2021/07/28 05:22:06;;;;;;;;;;;;;;;28.01;42.53;97106.94;5009140;28;1225;-53
2021/07/28 05:24:31;;;;;;;;;;;;;;;28.20;42.04;97111.34;5010108;28;1166;-52
2021/07/28 05:26:56;;;;;;;;;;;;;;;28.09;42.31;97109.69;5007368;28;1630;-52
2021/07/28 05:29:22;;;;;;;;;;;;;;;28.02;42.38;97121.88;5010473;28;1898;-53
2021/07/28 05:31:47;;;;;;;;;;;;;;;28.15;42.03;97112.75;5009856;28;1106;-53
2021/07/28 05:34:12;;;;;;;;;;;;;;;28.12;42.07;97113.03;5007541;28;1610;-53
2021/07/28 05:36:37;;;;;;;;;;;;;;;28.19;42.10;97114.13;5009846;28;1172;-52
2021/07/28 05:39:03;;;;;;;;;;;;;;;28.17;41.88;97105.47;5002059;28;1661;-52
2021/07/28 05:41:28;;;;;;;;;;;;;;;27.98;42.46;97117.03;5008431;28;1963;-51
2021/07/28 05:43:53;;;;;;;;;;;;;;;27.91;42.32;97110.63;5010173;28;1014;-51
2021/07/28 05:46:20;;;;;;;;;;;;;;;28.06;42.18;97112.66;5007117;28;1510;-51
2021/07/28 05:48:46;;;;;;;;;;;;;;;28.02;42.28;97108.63;5007844;28;1910;-53
2021/07/28 05:51:11;;;;;;;;;;;;;;;28.02;42.21;97113.91;5008931;28;1260;-51
2021/07/28 05:53:37;;;;;;;;;;;;;;;27.93;42.38;97114.81;5008843;28;1670;-52
2021/07/28 05:56:02;;;;;;;;;;;;;;;28.09;42.43;97109.69;5004731;28;1589;-53
2021/07/28 05:58:27;;;;;;;;;;;;;;;28.05;42.37;97108.34;5010235;28;1276;-50
2021/07/28 06:00:53;;;;;;;;;;;;;;;28.09;42.20;97111.53;5008731;28;1209;-51
2021/07/28 06:03:18;;;;;;;;;;;;;;;28.15;42.06;97118.06;5010255;28;1244;-53
2021/07/28 06:05:43;;;;;;;;;;;;;;;27.99;42.25;97118.69;5007517;28;1682;-52
2021/07/28 06:08:08;;;;;;;;;;;;;;;28.02;42.34;97123.69;5009906;28;1284;-54
2021/07/28 06:10:33;;;;;;;;;;;;;;;28.19;41.97;97117.59;5008746;28;1944;-51
2021/07/28 06:12:59;;;;;;;;;;;;;;;28.14;42.18;97111.09;5007696;28;1177;-51
2021/07/28 06:15:24;;;;;;;;;;;;;;;28.10;41.97;97116.66;5008782;28;1226;-54
2021/07/28 06:17:49;;;;;;;;;;;;;;;27.98;42.60;97120.50;5008999;28;1373;-52
2021/07/28 06:20:15;;;;;;;;;;;;;;;28.10;41.99;97110.53;5007246;28;1618;-53
2021/07/28 06:22:40;;;;;;;;;;;;;;;28.17;41.82;97111.63;5009433;28;1074;-53
2021/07/28 06:25:08;;;;;;;;;;;;;;;28.10;42.02;97116.66;5008201;28;1618;-53
2021/07/28 06:27:33;;;;;;;;;;;;;;;27.93;42.17;97121.91;5009426;28;1823;-51
2021/07/28 06:29:58;;;;;;;;;;;;;;;28.05;42.12;97118.94;5009206;28;1972;-52
2021/07/28 06:32:24;;;;;;;;;;;;;;;28.08;41.87;97117.81;5008238;28;1422;-52
2021/07/28 06:34:49;;;;;;;;;;;;;;;28.20;41.71;97121.06;5005683;28;1658;-52
2021/07/28 06:37:14;;;;;;;;;;;;;;;28.01;42.16;97122.03;5007978;28;1386;-53
2021/07/28 06:39:40;;;;;;;;;;;;;;;28.11;41.72;97117.50;5009422;28;1205;-53
2021/07/28 06:42:05;;;;;;;;;;;;;;;28.11;42.13;97122.81;4998877;28;1527;-52
2021/07/28 06:44:30;;;;;;;;;;;;;;;28.17;41.60;97119.56;5003230;28;2040;-54
2021/07/28 06:46:55;;;;;;;;;;;;;;;28.02;42.33;97123.69;5008275;28;1067;-54
2021/07/28 06:49:20;;;;;;;;;;;;;;;28.02;42.22;97115.75;5009310;28;1979;-53
2021/07/28 06:51:46;;;;;;;;;;;;;;;28.12;42.14;97113.88;5005553;28;1623;-53
2021/07/28 06:54:11;;;;;;;;;;;;;;;27.88;42.73;97101.16;5006662;28;1571;-54
2021/07/28 06:56:37;;;;;;;;;;;;;;;28.04;41.94;97106.69;5007301;28;1611;-54
2021/07/28 06:59:02;;;;;;;;;;;;;;;27.94;42.54;97121.78;5005174;28;1815;-53
2021/07/28 07:01:27;;;;;;;;;;;;;;;27.95;42.39;97127.91;5009668;28;1134;-52
2021/07/28 07:03:53;;;;;;;;;;;;;;;28.03;41.98;97115.59;5006880;28;1288;-53
2021/07/28 07:06:18;;;;;;;;;;;;;;;28.07;41.87;97119.63;5011413;28;1126;-53
2021/07/28 07:08:43;;;;;;;;;;;;;;;28.05;42.24;97123.41;5010146;28;1910;-53
2021/07/28 07:11:09;;;;;;;;;;;;;;;28.07;42.16;97127.56;5011727;28;1596;-53
2021/07/28 07:13:34;;;;;;;;;;;;;;;28.02;42.31;97129.00;5009463;28;1363;-51
2021/07/28 07:15:59;;;;;;;;;;;;;;;28.09;42.02;97125.59;5012087;28;1232;-51
2021/07/28 07:18:24;;;;;;;;;;;;;;;28.04;42.05;97130.53;5010424;28;1436;-52
2021/07/28 07:20:49;;;;;;;;;;;;;;;28.04;42.01;97130.53;5010746;28;1647;-52
2021/07/28 07:23:15;;;;;;;;;;;;;;;28.06;42.18;97128.56;5011985;28;1157;-53
2021/07/28 07:25:40;;;;;;;;;;;;;;;27.97;42.31;97131.25;5008353;28;1659;-53
2021/07/28 07:28:05;;;;;;;;;;;;;;;28.11;41.94;97128.09;5011962;28;1273;-52
2021/07/28 07:30:30;;;;;;;;;;;;;;;28.04;42.27;97129.66;5010919;28;1907;-52
2021/07/28 07:35:39;;;;;;;;;;;;;;;27.91;42.26;97140.63;5008219;28;1526;-53
2021/07/28 07:38:04;;;;;;;;;;;;;;;28.18;41.73;97133.66;5041316;22;1890;-53
2021/07/28 07:40:30;;;;;;;;;;;;;;;28.01;42.16;97128.16;5031218;28;2016;-56
2021/07/28 07:42:55;;;;;;;;;;;;;;;28.15;41.68;97123.34;5034854;28;1249;-53
2021/07/28 07:45:20;;;;;;;;;;;;;;;28.11;41.76;97133.41;5026247;28;1526;-56
2021/07/28 07:47:45;;;;;;;;;;;;;;;28.17;41.69;97122.22;5036511;28;1484;-56
2021/07/28 07:50:10;;;;;;;;;;;;;;;28.10;42.18;97115.84;5014608;28;1989;-56
2021/07/28 07:52:36;;;;;;;;;;;;;;;28.06;41.94;97112.66;5008706;28;1539;-56
2021/07/28 07:55:02;;;;;;;;;;;;;;;28.10;41.73;97115.84;5010441;28;1595;-56
2021/07/28 07:57:27;;;;;;;;;;;;;;;27.94;42.43;97119.13;5011231;28;989;-55
2021/07/28 07:59:53;;;;;;;;;;;;;;;28.07;42.23;97118.78;5011701;28;1297;-56
2021/07/28 08:02:18;;;;;;;;;;;;;;;28.03;42.05;97114.75;5009631;28;1344;-55
2021/07/28 08:04:43;;;;;;;;;;;;;;;27.98;42.05;97117.03;5008167;28;1599;-56
2021/07/28 08:07:08;;;;;;;;;;;;;;;27.96;42.31;97125.09;5011107;28;1236;-55
2021/07/28 08:09:33;;;;;;;;;;;;;;;28.01;42.21;97128.16;5010262;28;1898;-56
2021/07/28 08:11:59;;;;;;;;;;;;;;;27.95;42.37;97125.25;5009669;28;1584;-55
2021/07/28 08:14:24;;;;;;;;;;;;;;;28.01;42.07;97128.16;5010684;28;1228;-55
2021/07/28 08:16:49;;;;;;;;;;;;;;;28.10;42.11;97118.50;5010418;28;1198;-55
2021/07/28 08:19:14;;;;;;;;;;;;;;;28.04;42.25;97119.94;5009291;28;1518;-56
2021/07/28 08:21:39;;;;;;;;;;;;;;;28.01;42.14;97114.91;5009645;28;1326;-55
2021/07/28 08:24:05;;;;;;;;;;;;;;;28.04;42.10;97113.75;5006767;28;1567;-55
2021/07/28 08:26:30;;;;;;;;;;;;;;;28.21;41.79;97112.16;5007752;28;1560;-55
2021/07/28 08:28:55;;;;;;;;;;;;;;;28.10;41.96;97114.00;5009878;28;1914;-55
2021/07/28 08:31:20;;;;;;;;;;;;;;;28.09;41.65;97111.53;5010822;28;1113;-56
2021/07/28 08:33:47;;;;;;;;;;;;;;;28.09;41.85;97120.31;5005249;28;1595;-55
2021/07/28 08:36:12;;;;;;;;;;;;;;;28.01;42.01;97112.25;5011309;28;1184;-55
2021/07/28 08:38:37;;;;;;;;;;;;;;;28.09;41.69;97124.78;5009259;28;1487;-55
2021/07/28 08:41:03;;;;;;;;;;;;;;;28.01;41.95;97132.63;5009636;28;1582;-56
2021/07/28 08:43:30;;;;;;;;;;;;;;;27.94;42.31;97129.72;5010808;28;1181;-53
2021/07/28 08:45:56;;;;;;;;;;;;;;;27.95;42.09;97128.72;5005229;28;1571;-53
2021/07/28 08:48:25;;;;;;;;;;;;;;;28.03;41.99;97126.19;5008845;28;1379;-55
2021/07/28 08:50:52;;;;;;;;;;;;;;;27.98;41.95;97123.16;5010076;28;1910;-55
2021/07/28 08:53:17;;;;;;;;;;;;;;;28.07;41.86;97124.09;5011047;28;1098;-55
2021/07/28 08:55:42;;;;;;;;;;;;;;;28.04;42.01;97130.53;5005256;28;1622;-56
2021/07/28 08:58:07;;;;;;;;;;;;;;;27.97;42.09;97132.09;4996750;28;1365;-55
2021/07/28 09:00:45;;;;;;;;;;;;;;;28.00;42.19;97131.78;5000003;28;1232;-54
2021/07/28 09:03:11;;;;;;;;;;;;;;;28.07;41.90;97138.19;5009529;28;1095;-54
2021/07/28 09:05:43;;;;;;;;;;;;;;;27.99;42.04;97132.78;5008219;28;1567;-55
2021/07/28 09:08:28;;;;;;;;;;;;;;;28.02;42.03;97135.13;5009460;28;1284;-55
2021/07/28 09:10:53;;;;;;;;;;;;;;;27.93;42.35;97128.06;5007768;28;1973;-55
2021/07/28 09:13:28;;;;;;;;;;;;;;;28.01;42.05;97133.47;5009454;28;1178;-56
2021/07/28 09:15:58;;;;;;;;;;;;;;;27.95;42.13;97135.84;5010736;28;1166;-55
2021/07/28 09:18:36;;;;;;;;;;;;;;;27.97;42.18;97132.09;5008323;28;1694;-56
2021/07/28 09:21:04;;;;;;;;;;;;;;;28.05;42.06;97126.06;5008607;28;1662;-55
2021/07/28 09:23:39;;;;;;;;;;;;;;;28.08;41.78;97134.53;5009750;28;1208;-57
2021/07/28 09:26:08;;;;;;;;;;;;;;;28.04;41.99;97137.63;5009831;28;2087;-55
2021/07/28 09:28:33;;;;;;;;;;;;;;;28.00;42.10;97141.56;4995975;28;1302;-54
2021/07/28 09:30:58;;;;;;;;;;;;;;;27.98;42.33;97147.00;5010172;28;1971;-54
2021/07/28 09:33:23;;;;;;;;;;;;;;;27.99;42.34;97142.53;5009779;28;1272;-55
2021/07/28 09:35:54;;;;;;;;;;;;;;;28.08;42.05;97142.50;5009583;28;1630;-55
2021/07/28 09:38:28;;;;;;;;;;;;;;;27.89;42.38;97139.94;5008420;28;1259;-55
2021/07/28 09:40:57;;;;;;;;;;;;;;;28.05;41.97;97140.16;5006835;28;1657;-55
2021/07/28 09:43:22;;;;;;;;;;;;;;;27.96;42.05;97151.59;4993634;28;1537;-55
2021/07/28 09:45:47;;;;;;;;;;;;;;;28.00;42.10;97150.34;4997663;28;1615;-56
2021/07/28 09:48:13;;;;;;;;;;;;;;;27.89;42.47;97153.19;5002605;28;1610;-55
2021/07/28 09:50:38;;;;;;;;;;;;;;;27.97;42.24;97142.69;4997411;28;1910;-55
2021/07/28 09:53:07;;;;;;;;;;;;;;;27.99;42.12;97148.69;5010336;28;1141;-55
2021/07/28 09:55:32;;;;;;;;;;;;;;;27.88;42.53;97148.84;5005849;28;1702;-55
2021/07/28 09:57:58;;;;;;;;;;;;;;;28.09;42.10;97157.41;5008189;28;1442;-54
2021/07/28 10:00:23;;;;;;;;;;;;;;;27.97;42.25;97152.47;5009797;28;1315;-55
2021/07/28 10:02:49;;;;;;;;;;;;;;;28.03;42.01;97150.03;4993485;28;1550;-53
2021/07/28 10:05:16;;;;;;;;;;;;;;;28.09;42.09;97148.63;4992690;28;1175;-56
2021/07/28 10:07:41;;;;;;;;;;;;;;;28.01;41.94;97157.31;4991293;28;1189;-55
2021/07/28 10:10:08;;;;;;;;;;;;;;;28.00;42.02;97149.50;4995838;28;1975;-55
2021/07/28 10:12:34;;;;;;;;;;;;;;;27.95;42.04;97146.44;5008011;28;1230;-56
2021/07/28 10:14:59;;;;;;;;;;;;;;;28.07;41.89;97148.78;5006261;28;1646;-56
2021/07/28 10:17:24;;;;;;;;;;;;;;;28.02;42.21;97145.72;5009287;28;1197;-56
2021/07/28 10:19:50;;;;;;;;;;;;;;;27.94;42.13;97158.03;5008494;28;1432;-56
2021/07/28 10:22:15;;;;;;;;;;;;;;;28.28;41.46;97153.00;5007695;28;1666;-56
2021/07/28 10:24:40;;;;;;;;;;;;;;;27.93;41.93;97156.38;5005884;28;1728;-55
2021/07/28 10:27:05;;;;;;;;;;;;;;;27.90;42.40;97152.22;4991807;28;1725;-55
2021/07/28 10:29:31;;;;;;;;;;;;;;;28.04;41.81;97149.09;5009124;28;1902;-53
2021/07/28 10:31:56;;;;;;;;;;;;;;;28.17;41.49;97153.19;5009206;28;1045;-53
2021/07/28 10:34:28;;;;;;;;;;;;;;;27.96;42.40;97153.41;5006622;28;1520;-57
2021/07/28 10:36:54;;;;;;;;;;;;;;;27.91;42.32;97159.19;5009181;28;996;-55
2021/07/28 10:39:33;;;;;;;;;;;;;;;28.01;42.15;97159.97;5007246;28;1648;-53
2021/07/28 10:41:58;;;;;;;;;;;;;;;28.00;42.25;97162.75;5011840;28;1607;-56
2021/07/28 10:44:23;;;;;;;;;;;;;;;28.09;41.65;97167.19;5011385;28;1465;-55
2021/07/28 10:46:52;;;;;;;;;;;;;;;28.02;42.05;97156.31;5013043;28;1077;-55
2021/07/28 10:49:26;;;;;;;;;;;;;;;28.02;41.83;97160.78;5002047;28;2010;-55
2021/07/28 10:51:52;;;;;;;;;;;;;;;27.92;42.38;97165.31;5012702;28;1170;-55
2021/07/28 10:54:17;;;;;;;;;;;;;;;27.91;42.34;97169.78;5011606;28;1335;-56
2021/07/28 10:57:02;;;;;;;;;;;;;;;28.05;42.11;97168.47;5006779;28;2148;-55
2021/07/28 10:59:43;;;;;;;;;;;;;;;28.00;42.00;97166.25;4979637;28;1418;-54
2021/07/28 11:02:08;;;;;;;;;;;;;;;27.99;41.95;97182.31;5012209;28;1137;-55
2021/07/28 11:04:33;;;;;;;;;;;;;;;28.03;41.88;97189.81;5011870;28;1252;-55
2021/07/28 11:06:58;;;;;;;;;;;;;;;27.59;42.79;97201.06;5012004;28;1577;-55
2021/07/28 11:09:25;;;;;;;;;;;;;;;28.13;42.04;97205.69;5012741;28;1973;-56
2021/07/28 11:11:50;;;;;;;;;;;;;;;28.03;42.50;97210.19;5010997;28;1622;-55
2021/07/28 11:14:15;;;;;;;;;;;;;;;28.34;42.06;97218.75;5012424;28;1224;-55
2021/07/28 11:16:41;;;;;;;;;;;;;;;28.35;42.00;97226.53;5012384;28;1180;-55
2021/07/28 11:19:06;;;;;;;;;;;;;;;28.28;42.18;97230.75;4996580;28;1622;-54
2021/07/28 11:21:32;;;;;;;;;;;;;;;28.40;41.75;97236.72;5010423;28;1615;-54
2021/07/28 11:24:02;;;;;;;;;;;;;;;28.28;42.01;97240.50;5004013;28;1748;-55
2021/07/28 11:26:28;;;;;;;;;;;;;;;28.24;42.27;97244.44;5010120;28;1614;-55
2021/07/28 11:28:57;;;;;;;;;;;;;;;28.06;42.71;97239.91;5011360;28;1973;-55
2021/07/28 11:31:23;;;;;;;;;;;;;;;28.10;42.67;97241.25;5011019;28;1134;-55
2021/07/28 11:33:48;;;;;;;;;;;;;;;28.03;42.92;97247.28;5011541;28;1259;-55
2021/07/28 11:36:16;;;;;;;;;;;;;;;28.10;42.81;97243.09;5011139;28;1629;-53
2021/07/28 11:38:41;;;;;;;;;;;;;;;28.32;42.36;97233.97;5009739;28;1359;-55
2021/07/28 11:41:06;;;;;;;;;;;;;;;28.42;41.95;97240.06;5009421;28;1698;-54
2021/07/28 11:43:38;;;;;;;;;;;;;;;28.42;42.21;97239.22;5009922;28;1633;-55
2021/07/28 11:46:04;;;;;;;;;;;;;;;28.28;42.22;97240.50;5012028;28;1020;-55
2021/07/28 11:48:29;;;;;;;;;;;;;;;28.31;42.45;97237.59;5009333;28;1571;-54
2021/07/28 11:50:55;;;;;;;;;;;;;;;28.47;41.91;97248.44;5011565;28;2425;-56
2021/07/28 11:53:23;;;;;;;;;;;;;;;28.72;41.17;97246.91;4945624;28;1229;-55
2021/07/28 11:55:48;;;;;;;;;;;;;;;28.48;41.98;97247.44;5009029;28;1660;-54
2021/07/28 11:58:14;;;;;;;;;;;;;;;28.49;41.83;97249.09;5006182;28;1951;-52
2021/07/28 12:00:39;;;;;;;;;;;;;;;28.31;42.20;97245.56;5000361;28;1426;-55
2021/07/28 12:03:24;;;;;;;;;;;;;;;28.19;42.62;97246.69;5007789;28;1504;-55
2021/07/28 12:05:56;;;;;;;;;;;;;;;28.36;42.21;97251.28;5011207;28;1230;-57
2021/07/28 12:08:31;;;;;;;;;;;;;;;28.26;42.23;97253.91;4998264;28;1814;-51
2021/07/28 12:11:08;;;;;;;;;;;;;;;28.31;42.22;97251.69;5008296;28;1925;-55
2021/07/28 12:13:43;;;;;;;;;;;;;;;28.36;41.97;97246.81;5009413;28;1308;-56
2021/07/28 12:16:08;;;;;;;;;;;;;;;28.46;41.93;97249.41;5009319;28;1201;-55
2021/07/28 12:18:46;;;;;;;;;;;;;;;28.30;42.21;97249.19;5008515;28;1587;-55
2021/07/28 12:21:11;;;;;;;;;;;;;;;28.29;41.99;97255.47;5009605;28;1194;-55
2021/07/28 12:23:36;;;;;;;;;;;;;;;28.41;41.85;97243.69;5009726;28;1252;-55
2021/07/28 12:26:02;;;;;;;;;;;;;;;28.25;42.29;97241.63;5011191;28;1591;-57
2021/07/28 12:28:45;;;;;;;;;;;;;;;28.57;41.51;97243.91;5011163;28;1389;-54
2021/07/28 12:31:23;;;;;;;;;;;;;;;28.46;41.95;97249.41;5010647;28;2010;-55
2021/07/28 12:33:48;;;;;;;;;;;;;;;28.48;42.05;97243.97;5010243;28;1094;-53
2021/07/28 12:36:14;;;;;;;;;;;;;;;28.41;42.14;97241.03;5009368;28;1757;-56
2021/07/28 12:38:39;;;;;;;;;;;;;;;28.35;42.05;97233.66;4994872;28;1411;-54
2021/07/28 12:41:05;;;;;;;;;;;;;;;28.22;42.94;97239.28;4996078;28;1787;-54
2021/07/28 12:43:34;;;;;;;;;;;;;;;28.58;41.79;97240.25;5008909;28;1539;-54
2021/07/28 12:46:00;;;;;;;;;;;;;;;28.38;42.12;97229.91;5009438;28;1146;-56
2021/07/28 12:48:25;;;;;;;;;;;;;;;28.41;42.00;97224.31;5008184;28;1391;-54
2021/07/28 12:50:50;;;;;;;;;;;;;;;28.28;42.35;97235.19;5009316;28;1910;-52
2021/07/28 12:53:16;;;;;;;;;;;;;;;28.49;42.14;97235.84;5009105;28;1205;-55
2021/07/28 12:55:41;;;;;;;;;;;;;;;28.50;42.12;97237.50;5009512;28;1666;-55
2021/07/28 12:58:06;;;;;;;;;;;;;;;28.31;42.29;97237.59;5006960;28;1661;-53
2021/07/28 13:00:35;;;;;;;;;;;;;;;28.20;42.45;97243.03;5009908;28;1190;-54